Time;durP1;ratioP1;P1;durP2;ratioP2;P2;SDS_P1;SDS_P2;PMS_P1;PMS_P2;Temp;Humidity;BMP_temperature;BMP_pressure;BME280_temperature;BME280_humidity;BME280_pressure;Samples;Min_cycle;Max_cycle;Signal;HPM_P1;HPM_P2
2023/06/26 00:02:18;;;;;;;7.82;7.03;;;21.80;99.90;;;;;;5070365;28;20123;-63
2023/06/26 00:04:44;;;;;;;8.65;7.45;;;21.80;99.90;;;;;;5070747;28;20025;-62
2023/06/26 00:07:10;;;;;;;8.30;6.85;;;21.80;99.90;;;;;;5070341;28;20120;-63
2023/06/26 00:09:35;;;;;;;8.82;7.25;;;21.80;99.90;;;;;;5071006;28;20029;-62
2023/06/26 00:12:01;;;;;;;11.63;7.85;;;21.80;99.90;;;;;;5070586;28;20024;-63
2023/06/26 00:14:27;;;;;;;10.32;7.32;;;21.80;99.90;;;;;;5070690;28;20028;-62
2023/06/26 00:16:52;;;;;;;8.80;7.60;;;21.90;99.90;;;;;;5070366;28;20512;-62
2023/06/26 00:19:18;;;;;;;9.50;7.55;;;21.70;99.90;;;;;;5067713;28;20048;-62
2023/06/26 00:21:47;;;;;;;8.55;7.28;;;21.70;99.90;;;;;;5070442;28;20028;-62
2023/06/26 00:24:16;;;;;;;8.60;7.57;;;21.60;99.90;;;;;;5069936;28;20025;-63
2023/06/26 00:26:42;;;;;;;9.75;7.20;;;21.60;99.90;;;;;;5069876;28;20136;-63
2023/06/26 00:29:07;;;;;;;9.45;7.30;;;21.60;99.90;;;;;;5069783;28;20123;-62
2023/06/26 00:31:34;;;;;;;8.65;7.72;;;21.50;99.90;;;;;;5062522;28;20036;-62
2023/06/26 00:34:00;;;;;;;11.02;7.43;;;21.50;99.90;;;;;;5069965;28;20417;-63
2023/06/26 00:36:26;;;;;;;8.52;7.28;;;21.40;99.90;;;;;;5069106;28;20024;-62
2023/06/26 00:38:53;;;;;;;10.32;7.80;;;21.40;99.90;;;;;;5070102;28;20195;-63
2023/06/26 00:41:19;;;;;;;11.65;7.80;;;21.30;99.90;;;;;;5068911;28;20033;-62
2023/06/26 00:43:45;;;;;;;8.00;7.20;;;21.40;99.90;;;;;;5068069;28;20037;-62
2023/06/26 00:46:13;;;;;;;10.32;8.10;;;21.40;99.90;;;;;;5068724;28;20032;-62
2023/06/26 00:48:42;;;;;;;8.13;7.28;;;21.30;99.90;;;;;;5070131;28;20048;-62
2023/06/26 00:51:08;;;;;;;8.18;7.38;;;21.20;99.90;;;;;;5069590;28;20422;-62
2023/06/26 00:53:34;;;;;;;8.20;6.90;;;21.30;99.90;;;;;;5069616;28;20043;-63
2023/06/26 00:56:02;;;;;;;9.23;7.80;;;21.30;99.90;;;;;;5069377;28;20151;-63
2023/06/26 00:58:27;;;;;;;9.75;7.05;;;21.30;99.90;;;;;;5069411;28;20040;-63
2023/06/26 01:00:53;;;;;;;8.90;7.18;;;21.30;99.90;;;;;;5069854;28;20028;-63
2023/06/26 01:03:23;;;;;;;8.05;7.22;;;21.20;99.90;;;;;;5068247;28;20040;-62
2023/06/26 01:05:51;;;;;;;8.48;7.63;;;21.10;99.90;;;;;;5069095;28;20479;-63
2023/06/26 01:08:18;;;;;;;8.70;7.68;;;21.10;99.90;;;;;;5068936;28;20576;-64
2023/06/26 01:10:44;;;;;;;8.73;7.28;;;21.10;99.90;;;;;;5069742;28;20352;-62
2023/06/26 01:13:11;;;;;;;9.20;7.55;;;21.00;99.90;;;;;;5068596;28;20029;-62
2023/06/26 01:15:37;;;;;;;9.38;7.60;;;21.10;99.90;;;;;;5070135;28;20419;-63
2023/06/26 01:18:04;;;;;;;12.43;7.90;;;21.10;99.90;;;;;;5069019;28;20048;-61
2023/06/26 01:20:36;;;;;;;11.23;7.70;;;21.00;99.90;;;;;;5068789;28;20051;-62
2023/06/26 01:23:22;;;;;;;10.68;7.53;;;21.00;99.90;;;;;;5068778;28;20059;-62
2023/06/26 01:26:20;;;;;;;11.68;7.13;;;20.90;99.90;;;;;;5068210;28;20051;-63
2023/06/26 01:28:46;;;;;;;9.20;7.22;;;21.00;99.90;;;;;;5068467;28;20656;-63
2023/06/26 01:31:13;;;;;;;10.23;7.45;;;21.00;99.90;;;;;;5068695;28;20037;-62
2023/06/26 01:33:40;;;;;;;8.68;7.55;;;20.90;99.90;;;;;;5068814;28;20040;-63
2023/06/26 01:36:07;;;;;;;8.68;7.78;;;20.90;99.90;;;;;;5060196;28;20079;-63
2023/06/26 01:38:34;;;;;;;8.18;7.38;;;20.90;99.90;;;;;;5052882;28;20392;-62
2023/06/26 01:41:00;;;;;;;8.85;7.85;;;20.90;99.90;;;;;;5067057;28;20090;-63
2023/06/26 01:43:58;;;;;;;10.52;7.13;;;21.00;99.90;;;;;;5067474;28;20040;-62
2023/06/26 01:46:44;;;;;;;7.65;6.85;;;20.90;99.90;;;;;;5068510;28;20581;-63
2023/06/26 01:49:25;;;;;;;8.85;7.35;;;21.00;99.90;;;;;;5048135;28;20029;-63
2023/06/26 01:52:20;;;;;;;10.60;7.30;;;21.00;99.90;;;;;;5068623;28;20161;-63
2023/06/26 01:55:05;;;;;;;8.13;6.90;;;20.80;99.90;;;;;;5068259;28;20727;-63
2023/06/26 01:57:31;;;;;;;10.65;7.75;;;20.70;99.90;;;;;;5064699;28;20036;-63
2023/06/26 01:59:58;;;;;;;10.30;7.45;;;20.90;99.90;;;;;;5067862;28;20036;-62
2023/06/26 02:02:24;;;;;;;9.70;7.65;;;20.80;99.90;;;;;;5067914;28;20064;-62
2023/06/26 02:04:50;;;;;;;8.75;7.25;;;20.80;99.90;;;;;;5067978;28;20055;-63
2023/06/26 02:07:16;;;;;;;12.50;7.88;;;20.80;99.90;;;;;;5067760;28;20029;-62
2023/06/26 02:09:42;;;;;;;12.05;7.10;;;20.80;99.90;;;;;;5067611;28;20070;-63
2023/06/26 02:12:07;;;;;;;9.43;7.18;;;20.80;99.90;;;;;;5067824;28;20040;-63
2023/06/26 02:14:33;;;;;;;8.20;7.35;;;20.80;99.90;;;;;;5067918;28;20788;-63
2023/06/26 02:17:00;;;;;;;9.80;7.70;;;20.70;99.90;;;;;;5068066;28;20079;-63
2023/06/26 02:19:27;;;;;;;11.10;7.65;;;20.80;99.90;;;;;;5066971;28;20110;-63
2023/06/26 02:21:56;;;;;;;14.00;7.28;;;20.80;99.90;;;;;;5068098;28;20423;-63
2023/06/26 02:24:21;;;;;;;9.88;7.47;;;20.90;99.90;;;;;;5067567;28;20395;-63
2023/06/26 02:26:48;;;;;;;11.75;8.05;;;20.80;99.90;;;;;;5067958;28;20025;-63
2023/06/26 02:29:14;;;;;;;10.20;8.23;;;20.80;99.90;;;;;;5067268;28;20054;-62
2023/06/26 02:31:40;;;;;;;10.68;7.68;;;20.90;99.90;;;;;;5067665;28;20117;-63
2023/06/26 02:34:06;;;;;;;11.05;8.20;;;20.70;99.90;;;;;;5067171;28;20432;-62
2023/06/26 02:36:31;;;;;;;12.18;7.78;;;20.70;99.90;;;;;;5067279;28;20150;-63
2023/06/26 02:38:57;;;;;;;9.63;8.27;;;20.70;99.90;;;;;;5067787;28;20040;-63
2023/06/26 02:41:22;;;;;;;11.80;7.60;;;20.70;99.90;;;;;;5066829;28;20035;-63
2023/06/26 02:43:48;;;;;;;11.55;7.78;;;20.50;99.90;;;;;;5067789;28;20033;-62
2023/06/26 02:46:13;;;;;;;9.55;8.20;;;20.60;99.90;;;;;;5066812;28;20036;-63
2023/06/26 02:48:39;;;;;;;9.65;7.47;;;20.60;99.90;;;;;;5067832;28;20031;-63
2023/06/26 02:51:05;;;;;;;9.68;7.45;;;20.80;99.90;;;;;;5067520;28;20403;-62
2023/06/26 02:53:31;;;;;;;10.23;7.55;;;20.90;99.90;;;;;;5066555;28;20515;-62
2023/06/26 02:55:56;;;;;;;9.63;7.75;;;20.90;99.90;;;;;;5067217;28;20045;-63
2023/06/26 02:58:22;;;;;;;9.82;7.50;;;20.90;99.90;;;;;;5067296;28;20037;-62
2023/06/26 03:00:48;;;;;;;11.27;7.28;;;21.00;99.90;;;;;;5067409;28;20450;-62
2023/06/26 03:03:13;;;;;;;8.48;7.43;;;21.10;99.90;;;;;;5065240;28;20452;-62
2023/06/26 03:05:39;;;;;;;9.02;7.85;;;21.10;99.90;;;;;;5067077;28;20028;-63
2023/06/26 03:08:05;;;;;;;9.23;7.90;;;21.10;99.90;;;;;;5067165;28;20124;-63
2023/06/26 03:10:30;;;;;;;11.40;7.75;;;21.20;99.90;;;;;;5070101;28;20043;-63
2023/06/26 03:12:56;;;;;;;12.52;7.80;;;21.10;99.90;;;;;;5071705;28;20032;-63
2023/06/26 03:15:21;;;;;;;9.70;7.72;;;21.20;99.90;;;;;;5065402;28;20046;-62
2023/06/26 03:17:47;;;;;;;9.20;7.22;;;21.30;99.90;;;;;;5071450;28;20028;-63
2023/06/26 03:20:12;;;;;;;10.25;7.15;;;21.20;99.90;;;;;;5071333;28;20025;-63
2023/06/26 03:22:38;;;;;;;9.95;7.20;;;21.30;99.90;;;;;;5071461;28;20139;-62
2023/06/26 03:25:04;;;;;;;9.77;7.03;;;21.30;99.90;;;;;;5070503;28;20036;-63
2023/06/26 03:27:30;;;;;;;9.75;7.25;;;21.30;99.90;;;;;;5070706;28;20035;-62
2023/06/26 03:29:56;;;;;;;7.50;6.70;;;21.30;99.90;;;;;;5071570;28;20025;-63
2023/06/26 03:32:21;;;;;;;13.18;6.65;;;21.20;99.90;;;;;;5069274;28;20132;-63
2023/06/26 03:34:47;;;;;;;9.77;7.22;;;21.20;99.90;;;;;;5070451;28;20464;-63
2023/06/26 03:37:12;;;;;;;9.15;7.55;;;21.00;99.90;;;;;;5062056;28;20100;-62
2023/06/26 03:39:38;;;;;;;11.27;7.78;;;21.10;99.90;;;;;;5063963;28;20033;-63
2023/06/26 03:42:04;;;;;;;9.52;7.45;;;21.10;99.90;;;;;;5070718;28;20024;-62
2023/06/26 03:44:29;;;;;;;9.30;7.57;;;21.00;99.90;;;;;;5070212;28;20056;-63
2023/06/26 03:46:55;;;;;;;10.77;7.50;;;21.20;99.90;;;;;;5070597;28;20032;-63
2023/06/26 03:49:20;;;;;;;9.55;7.47;;;21.20;99.90;;;;;;5069865;28;20037;-63
2023/06/26 03:51:46;;;;;;;10.35;7.45;;;21.30;99.90;;;;;;5070876;28;20033;-63
2023/06/26 03:54:12;;;;;;;8.23;7.22;;;21.40;99.90;;;;;;5070557;28;20090;-63
2023/06/26 03:56:37;;;;;;;9.20;7.20;;;21.30;99.90;;;;;;5070475;28;20053;-63
2023/06/26 03:59:03;;;;;;;10.00;7.30;;;21.30;99.90;;;;;;5069511;28;20538;-62
2023/06/26 04:01:29;;;;;;;10.18;7.97;;;21.30;99.90;;;;;;5070749;28;20036;-62
2023/06/26 04:03:54;;;;;;;9.48;8.02;;;21.20;99.90;;;;;;5068485;28;20032;-62
2023/06/26 04:06:20;;;;;;;10.48;7.90;;;21.30;99.90;;;;;;5067852;28;20059;-62
2023/06/26 04:08:46;;;;;;;9.45;7.68;;;21.40;99.90;;;;;;5069047;28;20039;-62
2023/06/26 04:11:11;;;;;;;12.18;8.27;;;21.50;99.90;;;;;;5067854;28;20025;-62
2023/06/26 04:13:37;;;;;;;11.82;7.85;;;21.50;99.90;;;;;;5068635;28;20185;-62
2023/06/26 04:16:03;;;;;;;11.40;8.55;;;21.60;99.90;;;;;;5069403;28;20397;-61
2023/06/26 04:18:29;;;;;;;13.75;8.55;;;21.60;99.90;;;;;;5068393;28;20028;-62
2023/06/26 04:21:06;;;;;;;10.55;8.27;;;21.70;99.90;;;;;;5061181;28;20123;-62
2023/06/26 04:23:32;;;;;;;10.93;8.93;;;21.70;99.90;;;;;;5047637;28;20036;-62
2023/06/26 04:25:58;;;;;;;12.73;9.20;;;21.60;99.90;;;;;;5048159;28;20055;-62
2023/06/26 04:28:24;;;;;;;11.05;8.32;;;21.60;99.90;;;;;;5048521;28;20060;-62
2023/06/26 04:30:50;;;;;;;11.38;8.95;;;21.60;99.90;;;;;;5054048;28;20109;-62
2023/06/26 04:33:15;;;;;;;13.82;8.15;;;21.70;99.90;;;;;;5050390;28;20163;-62
2023/06/26 04:35:44;;;;;;;15.07;8.55;;;21.60;99.90;;;;;;5047962;28;20028;-57
2023/06/26 04:38:11;;;;;;;9.98;7.38;;;21.50;99.90;;;;;;5049204;28;20029;-58
2023/06/26 04:40:36;;;;;;;11.38;7.13;;;21.50;99.90;;;;;;5068361;28;20119;-57
2023/06/26 04:43:02;;;;;;;12.50;6.82;;;21.60;99.90;;;;;;5060482;28;20177;-57
2023/06/26 04:45:27;;;;;;;10.48;6.93;;;21.60;99.90;;;;;;5053082;28;20193;-57
2023/06/26 04:47:53;;;;;;;8.43;6.40;;;21.60;99.90;;;;;;5067991;28;20058;-57
2023/06/26 04:50:19;;;;;;;12.88;6.88;;;21.60;99.90;;;;;;5067503;28;20037;-57
2023/06/26 04:52:44;;;;;;;9.90;5.78;;;21.60;99.90;;;;;;5067988;28;20029;-57
2023/06/26 04:55:10;;;;;;;7.97;5.80;;;21.60;99.90;;;;;;5066261;28;20162;-57
2023/06/26 04:57:35;;;;;;;8.60;5.55;;;21.60;99.90;;;;;;5067751;28;20056;-57
2023/06/26 05:00:02;;;;;;;8.55;5.97;;;21.70;99.90;;;;;;5067740;28;20097;-57
2023/06/26 05:02:29;;;;;;;11.00;6.53;;;21.70;99.90;;;;;;5067410;28;20043;-57
2023/06/26 05:04:54;;;;;;;10.77;5.80;;;21.60;99.90;;;;;;5065945;28;20115;-57
2023/06/26 05:07:20;;;;;;;9.98;5.15;;;21.60;99.90;;;;;;5067084;28;20108;-58
2023/06/26 05:09:45;;;;;;;10.10;5.65;;;21.40;99.90;;;;;;5067481;28;20052;-62
2023/06/26 05:12:12;;;;;;;15.68;5.70;;;21.30;99.90;;;;;;5067218;28;20434;-62
2023/06/26 05:14:38;;;;;;;11.18;5.70;;;21.40;99.90;;;;;;5065891;28;20136;-62
2023/06/26 05:17:04;;;;;;;10.13;5.80;;;21.50;99.90;;;;;;5054708;28;20136;-62
2023/06/26 05:19:29;;;;;;;9.20;5.45;;;21.60;99.90;;;;;;5067100;28;20024;-62
2023/06/26 05:21:56;;;;;;;10.35;6.03;;;21.60;99.90;;;;;;5067318;28;20039;-63
2023/06/26 05:24:22;;;;;;;11.60;5.70;;;21.70;99.90;;;;;;5066852;28;20335;-63
2023/06/26 05:26:48;;;;;;;11.13;5.80;;;21.60;99.90;;;;;;5061784;28;20099;-63
2023/06/26 05:29:14;;;;;;;8.93;5.60;;;21.50;99.90;;;;;;5046962;28;20032;-62
2023/06/26 05:31:41;;;;;;;9.80;5.85;;;21.60;99.90;;;;;;5059540;28;20050;-62
2023/06/26 05:34:10;;;;;;;11.77;6.10;;;21.60;99.90;;;;;;5067147;28;20043;-62
2023/06/26 05:36:36;;;;;;;10.23;6.10;;;21.70;99.90;;;;;;5067148;28;20041;-63
2023/06/26 05:39:02;;;;;;;8.80;6.10;;;21.60;99.90;;;;;;5058894;28;20116;-61
2023/06/26 05:41:28;;;;;;;11.10;5.75;;;21.70;99.90;;;;;;5067096;28;20042;-62
2023/06/26 05:43:54;;;;;;;11.60;6.07;;;21.70;99.90;;;;;;5067143;28;20435;-62
2023/06/26 05:46:19;;;;;;;14.63;6.18;;;21.70;99.90;;;;;;5067589;28;20043;-62
2023/06/26 05:48:45;;;;;;;11.27;5.60;;;21.80;99.90;;;;;;5062170;28;20029;-63
2023/06/26 05:51:11;;;;;;;10.52;5.95;;;21.70;99.90;;;;;;5063223;28;20442;-62
2023/06/26 05:53:37;;;;;;;10.48;6.03;;;21.70;99.90;;;;;;5067126;28;20032;-62
2023/06/26 05:56:03;;;;;;;15.90;6.22;;;21.80;99.90;;;;;;5065027;28;20028;-62
2023/06/26 05:58:29;;;;;;;10.70;6.00;;;21.80;99.90;;;;;;5067297;28;20032;-62
2023/06/26 06:00:55;;;;;;;13.23;5.68;;;21.80;99.90;;;;;;5066584;28;20189;-63
2023/06/26 06:03:21;;;;;;;9.77;6.25;;;21.80;99.90;;;;;;5066463;28;20524;-62
2023/06/26 06:05:46;;;;;;;11.15;5.72;;;21.80;99.90;;;;;;5066689;28;20492;-63
2023/06/26 06:08:12;;;;;;;10.68;5.90;;;21.70;99.90;;;;;;5065710;28;20028;-63
2023/06/26 06:10:38;;;;;;;10.98;5.78;;;21.70;99.90;;;;;;5065794;28;20037;-63
2023/06/26 06:13:03;;;;;;;11.20;5.80;;;21.80;99.90;;;;;;5065665;28;20036;-62
2023/06/26 06:15:29;;;;;;;7.53;5.38;;;21.80;99.90;;;;;;5066657;28;20440;-62
2023/06/26 06:17:54;;;;;;;17.33;6.32;;;21.90;99.90;;;;;;5066434;28;20029;-63
2023/06/26 06:20:20;;;;;;;14.65;6.00;;;21.80;99.90;;;;;;5064117;28;20033;-63
2023/06/26 06:22:46;;;;;;;13.60;6.03;;;21.90;99.90;;;;;;5065370;28;20036;-63
2023/06/26 06:25:11;;;;;;;13.55;5.93;;;22.10;99.90;;;;;;5065169;28;20032;-62
2023/06/26 06:27:37;;;;;;;11.80;6.28;;;22.10;99.90;;;;;;5066211;28;20024;-63
2023/06/26 06:30:03;;;;;;;14.32;6.28;;;22.20;99.90;;;;;;5065685;28;20105;-62
2023/06/26 06:32:28;;;;;;;13.48;5.93;;;22.20;99.90;;;;;;5063796;28;20051;-63
2023/06/26 06:34:54;;;;;;;13.20;6.10;;;22.10;99.90;;;;;;5045599;28;20473;-64
2023/06/26 06:37:19;;;;;;;11.88;6.25;;;22.30;99.90;;;;;;5045406;28;20029;-62
2023/06/26 06:39:45;;;;;;;12.18;5.68;;;22.30;99.90;;;;;;5060316;28;20052;-63
2023/06/26 06:42:10;;;;;;;14.00;5.88;;;22.10;99.90;;;;;;5065547;28;20044;-62
2023/06/26 06:44:36;;;;;;;13.20;6.25;;;22.00;99.90;;;;;;5064952;28;20074;-63
2023/06/26 06:47:02;;;;;;;12.00;5.93;;;21.90;99.90;;;;;;5066663;28;20036;-61
2023/06/26 06:49:27;;;;;;;14.57;6.22;;;21.80;99.90;;;;;;5066205;28;20053;-62
2023/06/26 06:51:53;;;;;;;14.48;6.20;;;21.80;99.90;;;;;;5065755;28;20029;-63
2023/06/26 06:54:19;;;;;;;9.57;5.63;;;21.80;99.90;;;;;;5064010;28;20067;-62
2023/06/26 06:56:45;;;;;;;14.77;5.68;;;22.00;99.90;;;;;;5059913;28;20029;-63
2023/06/26 06:59:10;;;;;;;13.60;6.03;;;22.10;99.90;;;;;;5065833;28;20528;-62
2023/06/26 07:01:36;;;;;;;11.35;5.55;;;22.20;99.90;;;;;;5065908;28;20440;-62
2023/06/26 07:04:03;;;;;;;13.25;5.57;;;22.20;99.90;;;;;;5065422;28;20060;-61
2023/06/26 07:06:29;;;;;;;11.82;5.40;;;22.20;99.90;;;;;;5064298;28;20036;-63
2023/06/26 07:08:55;;;;;;;16.08;5.50;;;22.30;99.90;;;;;;5065919;28;20169;-63
2023/06/26 07:11:20;;;;;;;13.32;6.30;;;22.60;99.90;;;;;;5065660;28;20660;-63
2023/06/26 07:13:46;;;;;;;13.02;5.97;;;22.60;99.90;;;;;;5065875;28;20029;-63
2023/06/26 07:16:11;;;;;;;14.25;6.70;;;22.50;99.90;;;;;;5064376;28;20032;-63
2023/06/26 07:18:38;;;;;;;16.50;6.85;;;22.60;99.90;;;;;;5062352;28;20400;-63
2023/06/26 07:21:04;;;;;;;17.33;7.10;;;22.50;99.90;;;;;;5064993;28;20029;-62
2023/06/26 07:23:30;;;;;;;15.98;6.15;;;22.50;99.90;;;;;;5065686;28;20044;-62
2023/06/26 07:25:55;;;;;;;14.32;6.57;;;22.60;99.90;;;;;;5065233;28;20036;-63
2023/06/26 07:28:21;;;;;;;14.23;6.20;;;22.60;99.90;;;;;;5054904;28;20043;-63
2023/06/26 07:30:46;;;;;;;14.18;6.85;;;22.50;99.90;;;;;;5050768;28;20431;-63
2023/06/26 07:33:12;;;;;;;12.68;5.93;;;22.50;99.90;;;;;;5063613;28;20044;-62
2023/06/26 07:35:38;;;;;;;13.35;5.82;;;22.60;99.90;;;;;;5062300;28;20135;-64
2023/06/26 07:38:03;;;;;;;19.20;6.13;;;22.60;99.90;;;;;;5062401;28;20033;-62
2023/06/26 07:40:29;;;;;;;14.95;6.30;;;22.50;99.90;;;;;;5055604;28;20459;-62
2023/06/26 07:42:54;;;;;;;15.15;6.45;;;22.30;99.90;;;;;;5064197;28;20044;-63
2023/06/26 07:45:20;;;;;;;13.52;5.78;;;22.20;99.90;;;;;;5063548;28;20426;-62
2023/06/26 07:47:46;;;;;;;17.90;5.80;;;22.30;99.90;;;;;;5065533;28;20056;-63
2023/06/26 07:50:12;;;;;;;14.35;5.82;;;22.50;99.90;;;;;;5064873;28;20029;-63
2023/06/26 07:52:37;;;;;;;16.60;6.45;;;22.70;99.90;;;;;;5065456;28;20070;-64
2023/06/26 07:55:03;;;;;;;14.95;5.72;;;22.70;99.90;;;;;;5065019;28;20051;-62
2023/06/26 07:57:30;;;;;;;14.30;5.88;;;22.60;99.90;;;;;;5066821;28;20060;-63
2023/06/26 07:59:55;;;;;;;14.95;5.35;;;22.60;99.90;;;;;;5068726;28;20021;-64
2023/06/26 08:02:21;;;;;;;13.95;5.18;;;22.60;99.90;;;;;;5068176;28;20094;-62
2023/06/26 08:04:47;;;;;;;14.07;4.57;;;22.60;99.90;;;;;;5068245;28;20016;-62
2023/06/26 08:07:13;;;;;;;15.98;5.30;;;22.60;99.90;;;;;;5059006;28;20041;-63
2023/06/26 08:09:39;;;;;;;16.10;5.13;;;22.60;99.90;;;;;;5062547;28;20182;-63
2023/06/26 08:12:05;;;;;;;12.55;4.78;;;22.40;99.90;;;;;;5068473;28;20032;-62
2023/06/26 08:14:31;;;;;;;18.02;4.82;;;22.40;99.90;;;;;;5068549;28;20033;-63
2023/06/26 08:16:59;;;;;;;12.25;4.13;;;22.70;99.90;;;;;;5067800;28;20033;-63
2023/06/26 08:19:25;;;;;;;16.75;4.38;;;22.60;99.90;;;;;;5064598;28;20032;-62
2023/06/26 08:21:51;;;;;;;12.73;4.72;;;22.40;99.90;;;;;;5068607;28;20193;-63
2023/06/26 08:24:18;;;;;;;14.23;4.63;;;22.60;99.90;;;;;;5067969;28;20024;-62
2023/06/26 08:26:45;;;;;;;16.35;4.25;;;22.90;99.90;;;;;;5068058;28;20040;-63
2023/06/26 08:29:11;;;;;;;11.43;4.57;;;22.90;99.90;;;;;;5059219;28;20036;-62
2023/06/26 08:31:37;;;;;;;16.83;4.55;;;22.90;99.90;;;;;;5061185;28;20039;-63
2023/06/26 08:34:04;;;;;;;15.10;4.65;;;22.90;99.90;;;;;;5067651;28;20489;-62
2023/06/26 08:36:30;;;;;;;12.68;4.63;;;22.90;99.90;;;;;;5068226;28;20032;-62
2023/06/26 08:38:55;;;;;;;12.77;4.50;;;22.90;99.90;;;;;;5068067;28;20039;-63
2023/06/26 08:41:21;;;;;;;14.30;4.45;;;23.00;99.90;;;;;;5048936;28;20037;-62
2023/06/26 08:43:48;;;;;;;16.90;4.45;;;23.10;99.90;;;;;;5064041;28;20048;-63
2023/06/26 08:46:14;;;;;;;12.68;4.60;;;23.30;99.90;;;;;;5067165;28;20449;-63
2023/06/26 08:48:48;;;;;;;11.65;4.35;;;23.40;99.90;;;;;;5068139;28;20112;-63
2023/06/26 08:51:17;;;;;;;8.90;3.83;;;23.30;99.90;;;;;;5066690;28;20033;-63
2023/06/26 08:53:46;;;;;;;12.88;4.30;;;23.30;99.90;;;;;;5067532;28;20519;-62
2023/06/26 08:56:17;;;;;;;14.02;4.55;;;23.20;99.90;;;;;;5067084;28;20025;-63
2023/06/26 08:58:42;;;;;;;14.10;4.50;;;23.20;99.90;;;;;;5067983;28;20108;-63
2023/06/26 09:01:09;;;;;;;11.32;4.60;;;23.10;99.90;;;;;;5066727;28;20131;-63
2023/06/26 09:03:35;;;;;;;11.77;3.97;;;23.30;99.90;;;;;;5047882;28;20037;-63
2023/06/26 09:06:01;;;;;;;12.23;3.97;;;23.30;99.90;;;;;;5047277;28;20557;-63
2023/06/26 09:08:26;;;;;;;10.63;4.30;;;23.30;99.90;;;;;;5050250;28;20120;-63
2023/06/26 09:10:52;;;;;;;11.85;4.10;;;23.30;99.90;;;;;;5067786;28;20035;-63
2023/06/26 09:13:18;;;;;;;9.77;3.78;;;23.20;99.90;;;;;;5057613;28;20124;-63
2023/06/26 09:15:45;;;;;;;9.68;3.70;;;23.40;99.90;;;;;;5054593;28;20033;-63
2023/06/26 09:18:11;;;;;;;13.02;4.50;;;23.50;99.90;;;;;;5067063;28;20021;-63
2023/06/26 09:20:37;;;;;;;10.68;3.72;;;23.50;99.90;;;;;;5067508;28;20399;-63
2023/06/26 09:23:04;;;;;;;10.43;4.38;;;23.50;99.90;;;;;;5066589;28;20030;-63
2023/06/26 09:25:30;;;;;;;11.40;4.18;;;23.40;99.90;;;;;;5046814;28;20033;-63
2023/06/26 09:27:56;;;;;;;10.05;4.15;;;23.50;99.90;;;;;;5047729;28;20706;-64
2023/06/26 09:30:22;;;;;;;9.27;3.65;;;23.80;99.90;;;;;;5049339;28;20405;-63
2023/06/26 09:32:50;;;;;;;11.80;4.07;;;23.70;99.90;;;;;;5066937;28;20048;-63
2023/06/26 09:35:16;;;;;;;12.10;3.80;;;23.70;99.90;;;;;;5065056;28;20021;-63
2023/06/26 09:37:42;;;;;;;11.07;3.75;;;23.70;99.90;;;;;;5066910;28;20395;-64
2023/06/26 09:40:09;;;;;;;10.82;3.65;;;23.70;99.90;;;;;;5066444;28;20250;-63
2023/06/26 09:42:34;;;;;;;7.90;3.55;;;23.70;99.90;;;;;;5067281;28;20039;-64
2023/06/26 09:45:00;;;;;;;16.05;4.15;;;23.70;99.90;;;;;;5067161;28;20032;-63
2023/06/26 09:47:25;;;;;;;8.88;3.53;;;23.60;99.90;;;;;;5059650;28;20397;-63
2023/06/26 09:49:52;;;;;;;11.40;4.00;;;23.80;99.90;;;;;;5052523;28;20033;-63
2023/06/26 09:52:19;;;;;;;8.27;3.40;;;23.70;99.90;;;;;;5066124;28;20047;-63
2023/06/26 09:54:46;;;;;;;12.77;4.00;;;23.50;99.90;;;;;;5066491;28;20028;-63
2023/06/26 09:57:13;;;;;;;16.15;4.18;;;23.50;99.90;;;;;;5057412;28;20120;-63
2023/06/26 09:59:40;;;;;;;11.60;3.58;;;23.50;99.90;;;;;;5046707;28;20041;-63
2023/06/26 10:02:06;;;;;;;6.85;3.17;;;23.60;99.90;;;;;;5062788;28;20064;-63
2023/06/26 10:04:32;;;;;;;11.82;3.75;;;23.70;99.90;;;;;;5066331;28;20067;-62
2023/06/26 10:07:02;;;;;;;6.57;3.10;;;23.50;99.90;;;;;;5066170;28;20040;-62
2023/06/26 10:09:28;;;;;;;8.90;3.30;;;23.30;99.90;;;;;;5065584;28;20035;-62
2023/06/26 10:12:05;;;;;;;8.20;3.28;;;23.30;99.90;;;;;;5066502;28;20037;-63
2023/06/26 10:14:35;;;;;;;5.75;2.80;;;23.40;99.90;;;;;;5064656;28;20476;-63
2023/06/26 10:17:09;;;;;;;5.75;2.85;;;23.70;99.90;;;;;;5066174;28;20131;-63
2023/06/26 10:19:37;;;;;;;6.38;2.90;;;23.80;99.90;;;;;;5064801;28;20536;-64
2023/06/26 10:22:04;;;;;;;8.95;2.78;;;23.90;99.90;;;;;;5065897;28;20032;-62
2023/06/26 10:24:33;;;;;;;9.32;2.58;;;23.70;99.90;;;;;;5065900;28;20025;-62
2023/06/26 10:27:27;;;;;;;8.35;2.60;;;23.40;99.90;;;;;;5065533;28;20060;-62
2023/06/26 10:29:55;;;;;;;7.53;2.83;;;23.30;99.90;;;;;;5063853;28;20086;-63
2023/06/26 10:32:24;;;;;;;9.38;2.58;;;23.50;99.90;;;;;;5066008;28;20139;-63
2023/06/26 10:34:51;;;;;;;6.53;2.55;;;23.60;99.90;;;;;;5065653;28;20029;-62
2023/06/26 10:37:17;;;;;;;8.63;2.70;;;23.70;99.90;;;;;;5065589;28;20044;-62
2023/06/26 10:39:51;;;;;;;5.00;2.33;;;23.50;99.90;;;;;;5066057;28;20056;-63
2023/06/26 10:42:18;;;;;;;8.00;2.20;;;23.40;99.90;;;;;;5051380;28;20032;-63
2023/06/26 10:44:46;;;;;;;5.78;2.15;;;23.30;99.90;;;;;;5066026;28;20103;-62
2023/06/26 10:47:29;;;;;;;9.77;2.30;;;23.50;99.90;;;;;;5065665;28;20464;-63
2023/06/26 10:49:54;;;;;;;6.20;2.08;;;23.50;99.90;;;;;;5066301;28;20029;-63
2023/06/26 10:52:20;;;;;;;4.80;2.10;;;23.80;99.90;;;;;;5055231;28;20660;-63
2023/06/26 10:54:45;;;;;;;8.55;1.77;;;23.80;99.90;;;;;;5045604;28;20502;-64
2023/06/26 10:57:22;;;;;;;4.57;1.63;;;24.00;99.90;;;;;;5063177;28;20427;-62
2023/06/26 10:59:48;;;;;;;6.65;2.00;;;24.10;99.90;;;;;;5064868;28;20033;-65
2023/06/26 11:02:15;;;;;;;6.05;1.90;;;24.10;99.90;;;;;;5063976;28;20546;-63
2023/06/26 11:04:51;;;;;;;4.65;1.60;;;24.30;99.90;;;;;;5045182;28;20071;-63
2023/06/26 11:07:22;;;;;;;6.03;1.70;;;24.20;99.90;;;;;;5045370;28;20133;-62
2023/06/26 11:09:54;;;;;;;6.28;1.88;;;24.20;99.90;;;;;;5060853;28;20432;-63
2023/06/26 11:12:39;;;;;;;5.65;1.60;;;24.30;99.90;;;;;;5065131;28;20034;-63
2023/06/26 11:15:16;;;;;;;5.20;1.90;;;24.30;99.90;;;;;;5065262;28;20028;-62
2023/06/26 11:17:43;;;;;;;5.07;1.52;;;24.30;99.90;;;;;;5065544;28;20652;-63
2023/06/26 11:20:10;;;;;;;5.05;1.60;;;24.30;99.90;;;;;;5065338;28;20035;-62
2023/06/26 11:22:38;;;;;;;5.15;1.65;;;24.40;99.90;;;;;;5065510;28;20032;-63
2023/06/26 11:25:05;;;;;;;3.42;1.40;;;24.20;99.90;;;;;;5064151;28;20028;-63
2023/06/26 11:27:43;;;;;;;6.68;1.60;;;24.10;99.90;;;;;;5065496;28;20116;-63
2023/06/26 11:30:11;;;;;;;8.30;1.40;;;23.90;99.90;;;;;;5065620;28;20515;-62
2023/06/26 11:32:40;;;;;;;4.18;1.35;;;23.70;99.90;;;;;;5069642;28;20037;-62
2023/06/26 11:35:06;;;;;;;4.95;1.50;;;23.80;99.90;;;;;;5068020;28;20072;-62
2023/06/26 11:37:32;;;;;;;6.50;1.42;;;23.60;99.90;;;;;;5068875;28;20032;-62
2023/06/26 11:39:58;;;;;;;6.88;1.52;;;23.60;99.90;;;;;;5069696;28;20036;-62
2023/06/26 11:42:27;;;;;;;2.92;1.17;;;23.80;99.90;;;;;;5068951;28;20036;-62
2023/06/26 11:44:53;;;;;;;3.47;1.17;;;23.90;99.90;;;;;;5069240;28;20033;-63
2023/06/26 11:47:20;;;;;;;5.00;1.50;;;23.70;99.90;;;;;;5069064;28;20083;-62
2023/06/26 11:49:48;;;;;;;5.80;1.10;;;23.50;99.90;;;;;;5068965;28;20647;-63
2023/06/26 11:52:14;;;;;;;4.00;1.27;;;23.50;99.90;;;;;;5068824;28;20090;-62
2023/06/26 11:54:41;;;;;;;6.35;1.30;;;23.70;99.90;;;;;;5068461;28;20036;-63
2023/06/26 11:57:07;;;;;;;5.30;1.20;;;24.00;99.90;;;;;;5068867;28;20025;-61
2023/06/26 11:59:39;;;;;;;4.88;1.23;;;24.00;99.90;;;;;;5070576;28;20127;-63
2023/06/26 12:02:10;;;;;;;6.30;1.37;;;23.90;99.90;;;;;;5068644;28;20565;-62
2023/06/26 12:04:38;;;;;;;3.90;1.13;;;23.80;99.90;;;;;;5068729;28;20267;-62
2023/06/26 12:07:07;;;;;;;4.50;1.15;;;23.90;99.90;;;;;;5068695;28;20524;-61
2023/06/26 12:09:33;;;;;;;2.22;1.05;;;24.20;99.90;;;;;;5057078;28;20095;-62
2023/06/26 12:11:59;;;;;;;4.32;1.00;;;24.30;99.90;;;;;;5049135;28;20129;-62
2023/06/26 12:14:28;;;;;;;2.90;1.25;;;24.20;99.90;;;;;;5048063;28;20041;-62
2023/06/26 12:16:54;;;;;;;7.35;1.25;;;24.20;99.90;;;;;;5065155;28;20032;-63
2023/06/26 12:19:28;;;;;;;6.00;1.25;;;24.20;99.90;;;;;;5067704;28;20451;-62
2023/06/26 12:21:56;;;;;;;4.32;1.10;;;24.30;99.90;;;;;;5068738;28;20043;-62
2023/06/26 12:24:22;;;;;;;3.08;1.10;;;24.40;99.90;;;;;;5068108;28;20412;-62
2023/06/26 12:26:51;;;;;;;3.75;1.10;;;24.20;99.90;;;;;;5067879;28;20461;-62
2023/06/26 12:29:18;;;;;;;4.15;1.30;;;24.20;98.50;;;;;;5068107;28;20036;-62
2023/06/26 12:31:53;;;;;;;6.63;1.15;;;24.10;98.60;;;;;;5066785;28;20044;-62
2023/06/26 12:34:33;;;;;;;5.95;1.27;;;24.40;99.90;;;;;;5067544;28;20079;-62
2023/06/26 12:37:07;;;;;;;4.28;1.20;;;24.40;99.90;;;;;;5067800;28;20078;-62
2023/06/26 12:39:53;;;;;;;6.05;1.20;;;24.40;99.90;;;;;;5067855;28;20480;-62
2023/06/26 12:42:36;;;;;;;5.95;1.40;;;24.20;96.30;;;;;;5060617;28;20037;-62